Main page
METAR-TAF:

METAR-TAF

Airports :

Ras Al Khaimah International Airport

Ras al-Khaimah, United Arab Emirates

latitude: 25-37N, longitude: 055-56E, elevation: 31 m

Current weather observation

The report was made 10 minutes ago, at 08:00 UTC
Wind 11 kt from the West/Northwest, varying between West/Southwest and North/Northwest
Temperature 39°C
Humidity 31%
Pressure 1000 hPa
Visibility: 8000 m

METAR: OMRK 250800Z 29011KT 250V330 8000 NSC 39/19 Q1000 A2954

Time: 12:10 (08:10 UTC)

Forecast

The report was made 3 hours and 9 minutes ago, at 05:01 UTC
Forecast valid from 25 at 06 UTC to 26 at 12 UTC
Wind 5 kt from the Southwest
Visibility: 8000 m
Becoming
from 25 at 06 UTC to 25 at 08 UTC
Wind 10 kt from the West/Northwest
Becoming
from 25 at 15 UTC to 25 at 17 UTC
Wind 5 kt from the South/Southwest
Becoming
from 26 at 06 UTC to 26 at 08 UTC
Wind 12 kt from the West

TAF: OMRK 250501Z 2506/2612 22005KT 8000 NSC BECMG 2506/2508 29010KT BECMG 2515/2517 21005KT BECMG 2606/2608 28012KT

Weather observations and forecasts of more than 4000 airports (METAR and TAF reports).

The available stations are represented by yellow and red dots on the map.

Hover mouse over dot to see the name of the station.

Then click to see weather observations and forecasts.

To change the map : click on the green buttons with a black cross to zoom in, on the green button with a dash to zoom out, or on the green arrows for adjacent maps.


METAR-TAF: